Terminal Aerodrome Forecast
Issued by NWS Spokane, WA

Home | Current Version | Previous Version | Text Only | Print | Product List | Glossary On
Versions: 1 2 3 4 5 6 7 8 9 10 11 12 13 14
000
FTUS46 KOTX 291120
TAFGEG
TAF
KGEG 291120Z 2912/3012 12005KT P6SM VCSH BKN060 OVC080
     FM291500 16005KT P6SM -RA BKN030 OVC040
     FM291800 18009KT 6SM RA BKN025 OVC040
     FM300000 20006KT P6SM -SHRA BKN040 OVC060
     FM300500 22003KT P6SM SCT050 SCT100=

USA.gov is the U.S. government's official web portal to all federal, state and local government web resources and services.